sensor_id;sensor_type;location;lat;lon;timestamp;P1;durP1;ratioP1;P2;durP2;ratioP2
37280;SDS011;23169;41.804;12.596;2023-05-08T00:00:47;15.93;;;7.25;;
37280;SDS011;23169;41.804;12.596;2023-05-08T00:03:15;15.18;;;7.40;;
37280;SDS011;23169;41.804;12.596;2023-05-08T00:05:44;14.75;;;6.95;;
37280;SDS011;23169;41.804;12.596;2023-05-08T00:08:13;15.52;;;7.10;;
37280;SDS011;23169;41.804;12.596;2023-05-08T00:10:44;13.98;;;7.13;;
37280;SDS011;23169;41.804;12.596;2023-05-08T00:13:14;14.93;;;7.45;;
37280;SDS011;23169;41.804;12.596;2023-05-08T00:15:43;14.10;;;6.82;;
37280;SDS011;23169;41.804;12.596;2023-05-08T00:18:16;15.05;;;7.22;;
37280;SDS011;23169;41.804;12.596;2023-05-08T00:20:46;15.68;;;7.20;;
37280;SDS011;23169;41.804;12.596;2023-05-08T00:23:17;13.13;;;7.00;;
37280;SDS011;23169;41.804;12.596;2023-05-08T00:25:46;12.98;;;6.85;;
37280;SDS011;23169;41.804;12.596;2023-05-08T00:28:15;16.73;;;7.85;;
37280;SDS011;23169;41.804;12.596;2023-05-08T00:30:43;11.63;;;6.47;;
37280;SDS011;23169;41.804;12.596;2023-05-08T00:33:12;12.50;;;6.38;;
37280;SDS011;23169;41.804;12.596;2023-05-08T00:35:42;13.68;;;6.30;;
37280;SDS011;23169;41.804;12.596;2023-05-08T00:38:11;13.73;;;6.60;;
37280;SDS011;23169;41.804;12.596;2023-05-08T00:40:40;12.55;;;6.32;;
37280;SDS011;23169;41.804;12.596;2023-05-08T00:43:10;12.52;;;6.15;;
37280;SDS011;23169;41.804;12.596;2023-05-08T00:45:39;12.40;;;5.75;;
37280;SDS011;23169;41.804;12.596;2023-05-08T00:48:08;11.85;;;5.35;;
37280;SDS011;23169;41.804;12.596;2023-05-08T00:50:36;11.43;;;5.93;;
37280;SDS011;23169;41.804;12.596;2023-05-08T00:53:05;11.77;;;6.13;;
37280;SDS011;23169;41.804;12.596;2023-05-08T00:55:35;12.52;;;5.97;;
37280;SDS011;23169;41.804;12.596;2023-05-08T00:58:04;11.18;;;5.65;;
37280;SDS011;23169;41.804;12.596;2023-05-08T01:00:34;10.50;;;5.68;;
37280;SDS011;23169;41.804;12.596;2023-05-08T01:03:05;11.48;;;5.68;;
37280;SDS011;23169;41.804;12.596;2023-05-08T01:05:36;8.70;;;5.13;;
37280;SDS011;23169;41.804;12.596;2023-05-08T01:08:05;9.55;;;5.43;;
37280;SDS011;23169;41.804;12.596;2023-05-08T01:10:41;10.65;;;5.47;;
37280;SDS011;23169;41.804;12.596;2023-05-08T01:28:01;14.93;;;5.95;;
37280;SDS011;23169;41.804;12.596;2023-05-08T01:34:07;14.35;;;6.28;;
37280;SDS011;23169;41.804;12.596;2023-05-08T01:39:25;12.73;;;6.55;;
37280;SDS011;23169;41.804;12.596;2023-05-08T01:45:22;9.82;;;5.57;;
37280;SDS011;23169;41.804;12.596;2023-05-08T01:48:04;11.77;;;5.18;;
37280;SDS011;23169;41.804;12.596;2023-05-08T01:51:24;9.18;;;5.10;;
37280;SDS011;23169;41.804;12.596;2023-05-08T01:53:49;7.72;;;5.00;;
37280;SDS011;23169;41.804;12.596;2023-05-08T01:56:23;9.88;;;5.10;;
37280;SDS011;23169;41.804;12.596;2023-05-08T01:58:55;12.05;;;5.85;;
37280;SDS011;23169;41.804;12.596;2023-05-08T02:01:26;10.18;;;5.38;;
37280;SDS011;23169;41.804;12.596;2023-05-08T02:03:57;11.02;;;5.40;;
37280;SDS011;23169;41.804;12.596;2023-05-08T02:06:28;13.90;;;5.88;;
37280;SDS011;23169;41.804;12.596;2023-05-08T02:08:59;11.77;;;6.05;;
37280;SDS011;23169;41.804;12.596;2023-05-08T02:11:30;9.15;;;5.47;;
37280;SDS011;23169;41.804;12.596;2023-05-08T02:14:02;8.73;;;5.32;;
37280;SDS011;23169;41.804;12.596;2023-05-08T02:16:38;14.10;;;5.78;;
37280;SDS011;23169;41.804;12.596;2023-05-08T02:19:09;10.52;;;5.72;;
37280;SDS011;23169;41.804;12.596;2023-05-08T02:21:42;9.32;;;5.43;;
37280;SDS011;23169;41.804;12.596;2023-05-08T02:24:12;15.43;;;5.65;;
37280;SDS011;23169;41.804;12.596;2023-05-08T02:26:43;13.13;;;5.60;;
37280;SDS011;23169;41.804;12.596;2023-05-08T02:29:12;10.27;;;5.45;;
37280;SDS011;23169;41.804;12.596;2023-05-08T02:31:42;9.30;;;5.68;;
37280;SDS011;23169;41.804;12.596;2023-05-08T02:34:13;15.63;;;6.30;;
37280;SDS011;23169;41.804;12.596;2023-05-08T02:36:44;14.68;;;6.43;;
37280;SDS011;23169;41.804;12.596;2023-05-08T02:39:14;13.45;;;6.35;;
37280;SDS011;23169;41.804;12.596;2023-05-08T02:41:44;12.77;;;6.30;;
37280;SDS011;23169;41.804;12.596;2023-05-08T02:44:16;9.07;;;5.30;;
37280;SDS011;23169;41.804;12.596;2023-05-08T02:49:31;10.88;;;4.78;;
37280;SDS011;23169;41.804;12.596;2023-05-08T02:52:17;8.75;;;4.53;;
37280;SDS011;23169;41.804;12.596;2023-05-08T02:55:45;7.32;;;4.70;;
37280;SDS011;23169;41.804;12.596;2023-05-08T03:01:28;8.07;;;3.78;;
37280;SDS011;23169;41.804;12.596;2023-05-08T03:04:07;6.97;;;3.70;;
37280;SDS011;23169;41.804;12.596;2023-05-08T03:06:39;6.45;;;3.70;;
37280;SDS011;23169;41.804;12.596;2023-05-08T03:09:14;9.63;;;4.05;;
37280;SDS011;23169;41.804;12.596;2023-05-08T03:11:47;7.47;;;3.85;;
37280;SDS011;23169;41.804;12.596;2023-05-08T03:14:21;4.65;;;3.75;;
37280;SDS011;23169;41.804;12.596;2023-05-08T03:16:53;6.57;;;3.97;;
37280;SDS011;23169;41.804;12.596;2023-05-08T03:19:31;7.03;;;4.28;;
37280;SDS011;23169;41.804;12.596;2023-05-08T03:22:02;8.13;;;4.25;;
37280;SDS011;23169;41.804;12.596;2023-05-08T03:24:34;5.03;;;3.42;;
37280;SDS011;23169;41.804;12.596;2023-05-08T03:27:05;6.78;;;3.88;;
37280;SDS011;23169;41.804;12.596;2023-05-08T03:29:36;4.45;;;3.63;;
37280;SDS011;23169;41.804;12.596;2023-05-08T03:32:06;4.85;;;3.53;;
37280;SDS011;23169;41.804;12.596;2023-05-08T03:34:37;7.00;;;3.85;;
37280;SDS011;23169;41.804;12.596;2023-05-08T03:37:07;7.28;;;3.78;;
37280;SDS011;23169;41.804;12.596;2023-05-08T03:39:36;6.75;;;4.38;;
37280;SDS011;23169;41.804;12.596;2023-05-08T03:42:04;10.60;;;4.97;;
37280;SDS011;23169;41.804;12.596;2023-05-08T03:44:34;12.02;;;5.78;;
37280;SDS011;23169;41.804;12.596;2023-05-08T03:47:04;14.05;;;4.90;;
37280;SDS011;23169;41.804;12.596;2023-05-08T03:49:33;12.95;;;5.47;;
37280;SDS011;23169;41.804;12.596;2023-05-08T03:52:05;9.57;;;5.10;;
37280;SDS011;23169;41.804;12.596;2023-05-08T03:54:34;9.57;;;5.38;;
37280;SDS011;23169;41.804;12.596;2023-05-08T03:57:02;13.55;;;5.72;;
37280;SDS011;23169;41.804;12.596;2023-05-08T04:04:49;10.60;;;4.47;;
37280;SDS011;23169;41.804;12.596;2023-05-08T04:07:30;14.05;;;5.93;;
37280;SDS011;23169;41.804;12.596;2023-05-08T04:13:04;10.43;;;5.75;;
37280;SDS011;23169;41.804;12.596;2023-05-08T04:15:43;12.23;;;5.82;;
37280;SDS011;23169;41.804;12.596;2023-05-08T04:18:17;14.52;;;5.70;;
37280;SDS011;23169;41.804;12.596;2023-05-08T04:20:53;9.95;;;5.68;;
37280;SDS011;23169;41.804;12.596;2023-05-08T04:23:23;10.40;;;5.35;;
37280;SDS011;23169;41.804;12.596;2023-05-08T04:25:55;12.55;;;5.93;;
37280;SDS011;23169;41.804;12.596;2023-05-08T04:28:32;11.93;;;6.15;;
37280;SDS011;23169;41.804;12.596;2023-05-08T04:31:03;14.90;;;6.20;;
37280;SDS011;23169;41.804;12.596;2023-05-08T04:33:34;11.95;;;5.90;;
37280;SDS011;23169;41.804;12.596;2023-05-08T04:36:03;10.40;;;5.30;;
37280;SDS011;23169;41.804;12.596;2023-05-08T04:38:35;13.23;;;4.95;;
37280;SDS011;23169;41.804;12.596;2023-05-08T04:41:04;11.13;;;5.45;;
37280;SDS011;23169;41.804;12.596;2023-05-08T04:43:36;12.43;;;5.43;;
37280;SDS011;23169;41.804;12.596;2023-05-08T04:46:05;8.95;;;4.70;;
37280;SDS011;23169;41.804;12.596;2023-05-08T04:48:35;13.50;;;4.68;;
37280;SDS011;23169;41.804;12.596;2023-05-08T04:51:03;8.27;;;4.40;;
37280;SDS011;23169;41.804;12.596;2023-05-08T04:53:33;9.45;;;3.90;;
37280;SDS011;23169;41.804;12.596;2023-05-08T04:56:01;11.18;;;4.82;;
37280;SDS011;23169;41.804;12.596;2023-05-08T04:58:31;11.65;;;4.72;;
37280;SDS011;23169;41.804;12.596;2023-05-08T05:01:00;10.85;;;5.32;;
37280;SDS011;23169;41.804;12.596;2023-05-08T05:03:31;11.88;;;4.53;;
37280;SDS011;23169;41.804;12.596;2023-05-08T05:06:00;11.15;;;5.03;;
37280;SDS011;23169;41.804;12.596;2023-05-08T05:08:30;11.90;;;4.88;;
37280;SDS011;23169;41.804;12.596;2023-05-08T05:11:00;10.57;;;5.05;;
37280;SDS011;23169;41.804;12.596;2023-05-08T05:13:29;8.32;;;4.97;;
37280;SDS011;23169;41.804;12.596;2023-05-08T05:15:58;13.95;;;5.50;;
37280;SDS011;23169;41.804;12.596;2023-05-08T05:18:27;9.75;;;5.55;;
37280;SDS011;23169;41.804;12.596;2023-05-08T05:20:57;13.55;;;6.30;;
37280;SDS011;23169;41.804;12.596;2023-05-08T05:23:26;16.50;;;6.90;;
37280;SDS011;23169;41.804;12.596;2023-05-08T05:25:55;14.05;;;7.00;;
37280;SDS011;23169;41.804;12.596;2023-05-08T05:28:24;15.68;;;7.35;;
37280;SDS011;23169;41.804;12.596;2023-05-08T05:30:53;16.52;;;6.95;;
37280;SDS011;23169;41.804;12.596;2023-05-08T05:33:21;15.77;;;7.05;;
37280;SDS011;23169;41.804;12.596;2023-05-08T05:35:50;17.17;;;6.82;;
37280;SDS011;23169;41.804;12.596;2023-05-08T05:38:19;14.73;;;7.13;;
37280;SDS011;23169;41.804;12.596;2023-05-08T05:40:48;18.77;;;8.55;;
37280;SDS011;23169;41.804;12.596;2023-05-08T05:43:17;15.40;;;7.78;;
37280;SDS011;23169;41.804;12.596;2023-05-08T05:45:46;18.08;;;8.23;;
37280;SDS011;23169;41.804;12.596;2023-05-08T05:48:15;19.85;;;8.13;;
37280;SDS011;23169;41.804;12.596;2023-05-08T05:50:44;24.30;;;8.15;;
37280;SDS011;23169;41.804;12.596;2023-05-08T05:53:13;19.73;;;7.88;;
37280;SDS011;23169;41.804;12.596;2023-05-08T05:55:43;17.17;;;6.20;;
37280;SDS011;23169;41.804;12.596;2023-05-08T05:58:12;17.42;;;7.55;;
37280;SDS011;23169;41.804;12.596;2023-05-08T06:00:41;21.92;;;8.20;;
37280;SDS011;23169;41.804;12.596;2023-05-08T06:03:10;21.13;;;8.90;;
37280;SDS011;23169;41.804;12.596;2023-05-08T06:05:39;20.27;;;8.48;;
37280;SDS011;23169;41.804;12.596;2023-05-08T06:08:08;18.80;;;8.02;;
37280;SDS011;23169;41.804;12.596;2023-05-08T06:10:38;17.55;;;8.07;;
37280;SDS011;23169;41.804;12.596;2023-05-08T06:13:07;17.48;;;8.32;;
37280;SDS011;23169;41.804;12.596;2023-05-08T06:15:37;17.70;;;8.57;;
37280;SDS011;23169;41.804;12.596;2023-05-08T06:18:05;14.18;;;7.03;;
37280;SDS011;23169;41.804;12.596;2023-05-08T06:20:35;17.90;;;7.90;;
37280;SDS011;23169;41.804;12.596;2023-05-08T06:23:07;20.88;;;8.77;;
37280;SDS011;23169;41.804;12.596;2023-05-08T06:25:36;20.15;;;8.48;;
37280;SDS011;23169;41.804;12.596;2023-05-08T06:28:05;21.10;;;9.00;;
37280;SDS011;23169;41.804;12.596;2023-05-08T06:30:35;20.50;;;8.20;;
37280;SDS011;23169;41.804;12.596;2023-05-08T06:33:03;16.35;;;8.25;;
37280;SDS011;23169;41.804;12.596;2023-05-08T06:35:32;17.05;;;8.30;;
37280;SDS011;23169;41.804;12.596;2023-05-08T06:38:01;17.92;;;8.23;;
37280;SDS011;23169;41.804;12.596;2023-05-08T06:40:30;18.60;;;8.02;;
37280;SDS011;23169;41.804;12.596;2023-05-08T06:42:59;15.60;;;7.93;;
37280;SDS011;23169;41.804;12.596;2023-05-08T06:45:28;16.33;;;7.35;;
37280;SDS011;23169;41.804;12.596;2023-05-08T06:47:57;18.70;;;7.70;;
37280;SDS011;23169;41.804;12.596;2023-05-08T06:50:26;13.85;;;7.00;;
37280;SDS011;23169;41.804;12.596;2023-05-08T06:52:54;13.80;;;7.15;;
37280;SDS011;23169;41.804;12.596;2023-05-08T06:55:23;14.05;;;6.95;;
37280;SDS011;23169;41.804;12.596;2023-05-08T06:57:52;10.82;;;6.53;;
37280;SDS011;23169;41.804;12.596;2023-05-08T07:00:21;13.20;;;6.15;;
37280;SDS011;23169;41.804;12.596;2023-05-08T07:02:50;17.17;;;5.90;;
37280;SDS011;23169;41.804;12.596;2023-05-08T07:05:19;11.10;;;6.03;;
37280;SDS011;23169;41.804;12.596;2023-05-08T07:07:48;10.60;;;5.65;;
37280;SDS011;23169;41.804;12.596;2023-05-08T07:10:17;12.30;;;5.72;;
37280;SDS011;23169;41.804;12.596;2023-05-08T07:12:48;10.27;;;5.68;;
37280;SDS011;23169;41.804;12.596;2023-05-08T07:15:16;15.82;;;6.50;;
37280;SDS011;23169;41.804;12.596;2023-05-08T07:17:45;14.38;;;5.82;;
37280;SDS011;23169;41.804;12.596;2023-05-08T07:20:14;18.42;;;7.75;;
37280;SDS011;23169;41.804;12.596;2023-05-08T07:22:43;17.75;;;7.63;;
37280;SDS011;23169;41.804;12.596;2023-05-08T07:25:12;16.80;;;7.13;;
37280;SDS011;23169;41.804;12.596;2023-05-08T07:27:41;12.57;;;6.50;;
37280;SDS011;23169;41.804;12.596;2023-05-08T07:30:09;12.82;;;6.65;;
37280;SDS011;23169;41.804;12.596;2023-05-08T07:32:39;16.05;;;6.80;;
37280;SDS011;23169;41.804;12.596;2023-05-08T07:35:07;23.02;;;8.23;;
37280;SDS011;23169;41.804;12.596;2023-05-08T07:37:39;15.23;;;7.32;;
37280;SDS011;23169;41.804;12.596;2023-05-08T07:40:10;18.17;;;7.85;;
37280;SDS011;23169;41.804;12.596;2023-05-08T07:42:42;19.35;;;8.57;;
37280;SDS011;23169;41.804;12.596;2023-05-08T07:45:12;16.02;;;7.35;;
37280;SDS011;23169;41.804;12.596;2023-05-08T07:47:48;19.63;;;9.07;;
37280;SDS011;23169;41.804;12.596;2023-05-08T07:50:23;20.85;;;8.25;;
37280;SDS011;23169;41.804;12.596;2023-05-08T07:52:53;15.68;;;8.35;;
37280;SDS011;23169;41.804;12.596;2023-05-08T07:55:22;19.05;;;8.60;;
37280;SDS011;23169;41.804;12.596;2023-05-08T07:57:50;21.58;;;9.75;;
37280;SDS011;23169;41.804;12.596;2023-05-08T08:00:19;22.02;;;10.27;;
37280;SDS011;23169;41.804;12.596;2023-05-08T08:02:50;24.63;;;10.20;;
37280;SDS011;23169;41.804;12.596;2023-05-08T08:05:19;19.90;;;9.77;;
37280;SDS011;23169;41.804;12.596;2023-05-08T08:07:48;22.48;;;10.18;;
37280;SDS011;23169;41.804;12.596;2023-05-08T08:10:17;22.27;;;10.15;;
37280;SDS011;23169;41.804;12.596;2023-05-08T08:12:46;19.67;;;9.90;;
37280;SDS011;23169;41.804;12.596;2023-05-08T08:15:14;18.80;;;9.43;;
37280;SDS011;23169;41.804;12.596;2023-05-08T08:17:44;20.38;;;9.35;;
37280;SDS011;23169;41.804;12.596;2023-05-08T08:20:12;16.92;;;8.88;;
37280;SDS011;23169;41.804;12.596;2023-05-08T08:22:41;18.42;;;9.75;;
37280;SDS011;23169;41.804;12.596;2023-05-08T08:25:10;20.08;;;9.18;;
37280;SDS011;23169;41.804;12.596;2023-05-08T08:27:40;20.75;;;9.57;;
37280;SDS011;23169;41.804;12.596;2023-05-08T08:30:08;19.58;;;9.02;;
37280;SDS011;23169;41.804;12.596;2023-05-08T08:32:38;16.63;;;8.50;;
37280;SDS011;23169;41.804;12.596;2023-05-08T08:35:09;16.85;;;8.38;;
37280;SDS011;23169;41.804;12.596;2023-05-08T08:37:38;17.42;;;8.50;;
37280;SDS011;23169;41.804;12.596;2023-05-08T08:40:06;19.70;;;9.48;;
37280;SDS011;23169;41.804;12.596;2023-05-08T08:42:35;21.00;;;10.32;;
37280;SDS011;23169;41.804;12.596;2023-05-08T08:45:05;16.25;;;8.23;;
37280;SDS011;23169;41.804;12.596;2023-05-08T08:47:36;19.05;;;9.23;;
37280;SDS011;23169;41.804;12.596;2023-05-08T08:50:08;16.75;;;8.32;;
37280;SDS011;23169;41.804;12.596;2023-05-08T08:52:38;18.40;;;8.52;;
37280;SDS011;23169;41.804;12.596;2023-05-08T08:55:08;12.80;;;6.38;;
37280;SDS011;23169;41.804;12.596;2023-05-08T08:57:59;13.25;;;6.55;;
37280;SDS011;23169;41.804;12.596;2023-05-08T09:00:52;10.75;;;5.85;;
37280;SDS011;23169;41.804;12.596;2023-05-08T09:03:23;12.88;;;6.32;;
37280;SDS011;23169;41.804;12.596;2023-05-08T09:05:52;11.70;;;5.93;;
37280;SDS011;23169;41.804;12.596;2023-05-08T09:08:21;11.95;;;6.00;;
37280;SDS011;23169;41.804;12.596;2023-05-08T09:10:50;11.68;;;6.03;;
37280;SDS011;23169;41.804;12.596;2023-05-08T09:13:22;13.50;;;6.25;;
37280;SDS011;23169;41.804;12.596;2023-05-08T09:15:53;15.88;;;6.25;;
37280;SDS011;23169;41.804;12.596;2023-05-08T09:18:22;13.82;;;6.30;;
37280;SDS011;23169;41.804;12.596;2023-05-08T09:20:50;16.60;;;7.22;;
37280;SDS011;23169;41.804;12.596;2023-05-08T09:23:29;13.48;;;6.47;;
37280;SDS011;23169;41.804;12.596;2023-05-08T09:25:58;11.43;;;6.30;;
37280;SDS011;23169;41.804;12.596;2023-05-08T09:28:27;13.75;;;7.15;;
37280;SDS011;23169;41.804;12.596;2023-05-08T09:30:57;11.38;;;6.00;;
37280;SDS011;23169;41.804;12.596;2023-05-08T09:33:27;15.38;;;5.55;;
37280;SDS011;23169;41.804;12.596;2023-05-08T09:35:57;17.98;;;7.00;;
37280;SDS011;23169;41.804;12.596;2023-05-08T09:38:32;21.58;;;7.10;;
37280;SDS011;23169;41.804;12.596;2023-05-08T09:41:09;14.85;;;6.38;;
37280;SDS011;23169;41.804;12.596;2023-05-08T09:43:43;15.35;;;6.13;;
37280;SDS011;23169;41.804;12.596;2023-05-08T09:46:27;14.95;;;6.43;;
37280;SDS011;23169;41.804;12.596;2023-05-08T09:48:57;13.07;;;6.00;;
37280;SDS011;23169;41.804;12.596;2023-05-08T09:51:29;15.40;;;6.07;;
37280;SDS011;23169;41.804;12.596;2023-05-08T09:53:58;13.43;;;5.63;;
37280;SDS011;23169;41.804;12.596;2023-05-08T09:56:32;13.85;;;5.82;;
37280;SDS011;23169;41.804;12.596;2023-05-08T09:59:02;17.67;;;6.30;;
37280;SDS011;23169;41.804;12.596;2023-05-08T10:01:34;15.15;;;5.60;;
37280;SDS011;23169;41.804;12.596;2023-05-08T10:04:03;12.02;;;5.40;;
37280;SDS011;23169;41.804;12.596;2023-05-08T10:06:32;14.07;;;5.65;;
37280;SDS011;23169;41.804;12.596;2023-05-08T10:09:07;11.68;;;5.68;;
37280;SDS011;23169;41.804;12.596;2023-05-08T10:11:49;12.73;;;4.93;;
37280;SDS011;23169;41.804;12.596;2023-05-08T10:14:20;11.17;;;5.40;;
37280;SDS011;23169;41.804;12.596;2023-05-08T10:16:51;15.55;;;5.88;;
37280;SDS011;23169;41.804;12.596;2023-05-08T10:19:20;10.75;;;5.63;;
37280;SDS011;23169;41.804;12.596;2023-05-08T10:21:52;16.65;;;6.03;;
37280;SDS011;23169;41.804;12.596;2023-05-08T10:27:12;15.98;;;6.60;;
37280;SDS011;23169;41.804;12.596;2023-05-08T10:29:51;19.55;;;6.05;;
37280;SDS011;23169;41.804;12.596;2023-05-08T10:32:22;10.57;;;5.50;;
37280;SDS011;23169;41.804;12.596;2023-05-08T10:34:51;17.15;;;6.63;;
37280;SDS011;23169;41.804;12.596;2023-05-08T10:37:22;14.05;;;5.82;;
37280;SDS011;23169;41.804;12.596;2023-05-08T10:39:51;12.27;;;6.30;;
37280;SDS011;23169;41.804;12.596;2023-05-08T10:42:24;15.63;;;6.43;;
37280;SDS011;23169;41.804;12.596;2023-05-08T10:44:54;14.27;;;6.13;;
37280;SDS011;23169;41.804;12.596;2023-05-08T10:56:48;11.30;;;6.15;;
37280;SDS011;23169;41.804;12.596;2023-05-08T10:59:18;16.20;;;6.63;;
37280;SDS011;23169;41.804;12.596;2023-05-08T11:01:47;17.73;;;6.10;;
37280;SDS011;23169;41.804;12.596;2023-05-08T11:04:20;16.42;;;7.20;;
37280;SDS011;23169;41.804;12.596;2023-05-08T11:06:51;14.20;;;6.22;;
37280;SDS011;23169;41.804;12.596;2023-05-08T11:09:27;14.45;;;6.43;;
37280;SDS011;23169;41.804;12.596;2023-05-08T11:15:00;16.70;;;6.63;;
37280;SDS011;23169;41.804;12.596;2023-05-08T11:17:32;13.95;;;6.82;;
37280;SDS011;23169;41.804;12.596;2023-05-08T11:20:02;12.75;;;6.70;;
37280;SDS011;23169;41.804;12.596;2023-05-08T11:22:33;18.52;;;6.88;;
37280;SDS011;23169;41.804;12.596;2023-05-08T11:25:03;18.20;;;6.82;;
37280;SDS011;23169;41.804;12.596;2023-05-08T11:30:22;12.07;;;6.30;;
37280;SDS011;23169;41.804;12.596;2023-05-08T11:35:52;13.65;;;6.68;;
37280;SDS011;23169;41.804;12.596;2023-05-08T11:43:43;12.93;;;6.32;;
37280;SDS011;23169;41.804;12.596;2023-05-08T11:46:32;14.75;;;7.65;;
37280;SDS011;23169;41.804;12.596;2023-05-08T11:49:10;13.48;;;6.55;;
37280;SDS011;23169;41.804;12.596;2023-05-08T11:51:45;12.43;;;6.97;;
37280;SDS011;23169;41.804;12.596;2023-05-08T11:54:22;11.52;;;6.50;;
37280;SDS011;23169;41.804;12.596;2023-05-08T11:56:51;15.30;;;6.68;;
37280;SDS011;23169;41.804;12.596;2023-05-08T11:59:25;16.20;;;6.97;;
37280;SDS011;23169;41.804;12.596;2023-05-08T12:01:53;15.70;;;7.63;;
37280;SDS011;23169;41.804;12.596;2023-05-08T12:04:22;19.48;;;8.02;;
37280;SDS011;23169;41.804;12.596;2023-05-08T12:06:51;14.75;;;6.90;;
37280;SDS011;23169;41.804;12.596;2023-05-08T12:09:25;13.82;;;6.82;;
37280;SDS011;23169;41.804;12.596;2023-05-08T12:11:55;15.02;;;7.03;;
37280;SDS011;23169;41.804;12.596;2023-05-08T12:14:24;14.50;;;7.03;;
37280;SDS011;23169;41.804;12.596;2023-05-08T12:16:53;14.45;;;7.00;;
37280;SDS011;23169;41.804;12.596;2023-05-08T12:19:22;16.05;;;7.35;;
37280;SDS011;23169;41.804;12.596;2023-05-08T12:21:51;16.77;;;7.38;;
37280;SDS011;23169;41.804;12.596;2023-05-08T12:24:23;12.18;;;7.13;;
37280;SDS011;23169;41.804;12.596;2023-05-08T12:26:53;17.10;;;7.38;;
37280;SDS011;23169;41.804;12.596;2023-05-08T12:29:23;17.05;;;7.72;;
37280;SDS011;23169;41.804;12.596;2023-05-08T12:31:51;16.17;;;7.13;;
37280;SDS011;23169;41.804;12.596;2023-05-08T12:34:20;13.98;;;7.28;;
37280;SDS011;23169;41.804;12.596;2023-05-08T12:36:59;15.32;;;7.22;;
37280;SDS011;23169;41.804;12.596;2023-05-08T12:39:33;15.18;;;7.15;;
37280;SDS011;23169;41.804;12.596;2023-05-08T12:42:03;15.15;;;7.20;;
37280;SDS011;23169;41.804;12.596;2023-05-08T12:44:33;15.65;;;8.00;;
37280;SDS011;23169;41.804;12.596;2023-05-08T12:47:03;18.08;;;7.43;;
37280;SDS011;23169;41.804;12.596;2023-05-08T12:49:32;16.15;;;8.05;;
37280;SDS011;23169;41.804;12.596;2023-05-08T12:52:02;18.30;;;8.43;;
37280;SDS011;23169;41.804;12.596;2023-05-08T12:54:34;14.30;;;7.25;;
37280;SDS011;23169;41.804;12.596;2023-05-08T12:57:08;16.83;;;8.50;;
37280;SDS011;23169;41.804;12.596;2023-05-08T12:59:43;13.93;;;7.40;;
37280;SDS011;23169;41.804;12.596;2023-05-08T13:02:16;20.65;;;7.75;;
37280;SDS011;23169;41.804;12.596;2023-05-08T13:04:53;16.38;;;7.07;;
37280;SDS011;23169;41.804;12.596;2023-05-08T13:07:30;14.07;;;7.22;;
37280;SDS011;23169;41.804;12.596;2023-05-08T13:09:59;16.23;;;7.80;;
37280;SDS011;23169;41.804;12.596;2023-05-08T13:12:32;16.67;;;7.40;;
37280;SDS011;23169;41.804;12.596;2023-05-08T13:15:01;17.90;;;7.72;;
37280;SDS011;23169;41.804;12.596;2023-05-08T13:17:31;16.40;;;7.60;;
37280;SDS011;23169;41.804;12.596;2023-05-08T13:20:02;23.42;;;8.90;;
37280;SDS011;23169;41.804;12.596;2023-05-08T13:22:31;18.63;;;8.25;;
37280;SDS011;23169;41.804;12.596;2023-05-08T13:24:59;22.13;;;8.10;;
37280;SDS011;23169;41.804;12.596;2023-05-08T13:27:29;19.88;;;8.55;;
37280;SDS011;23169;41.804;12.596;2023-05-08T13:29:58;19.92;;;8.35;;
37280;SDS011;23169;41.804;12.596;2023-05-08T13:32:27;16.60;;;8.00;;
37280;SDS011;23169;41.804;12.596;2023-05-08T13:34:55;18.42;;;8.45;;
37280;SDS011;23169;41.804;12.596;2023-05-08T13:37:24;17.25;;;8.75;;
37280;SDS011;23169;41.804;12.596;2023-05-08T13:39:53;22.52;;;9.43;;
37280;SDS011;23169;41.804;12.596;2023-05-08T13:42:21;16.80;;;8.10;;
37280;SDS011;23169;41.804;12.596;2023-05-08T13:44:50;19.40;;;8.80;;
37280;SDS011;23169;41.804;12.596;2023-05-08T13:47:18;19.73;;;8.73;;
37280;SDS011;23169;41.804;12.596;2023-05-08T13:49:46;21.25;;;8.45;;
37280;SDS011;23169;41.804;12.596;2023-05-08T13:52:17;21.27;;;9.00;;
37280;SDS011;23169;41.804;12.596;2023-05-08T13:54:47;21.50;;;8.48;;
37280;SDS011;23169;41.804;12.596;2023-05-08T13:57:16;18.10;;;9.23;;
37280;SDS011;23169;41.804;12.596;2023-05-08T13:59:46;20.45;;;9.35;;
37280;SDS011;23169;41.804;12.596;2023-05-08T14:02:18;16.75;;;8.52;;
37280;SDS011;23169;41.804;12.596;2023-05-08T14:04:47;19.55;;;8.57;;
37280;SDS011;23169;41.804;12.596;2023-05-08T14:07:15;22.20;;;9.07;;
37280;SDS011;23169;41.804;12.596;2023-05-08T14:09:45;19.45;;;9.15;;
37280;SDS011;23169;41.804;12.596;2023-05-08T14:12:14;22.27;;;9.73;;
37280;SDS011;23169;41.804;12.596;2023-05-08T14:14:42;17.27;;;8.27;;
37280;SDS011;23169;41.804;12.596;2023-05-08T14:17:11;18.77;;;9.02;;
37280;SDS011;23169;41.804;12.596;2023-05-08T14:19:40;19.95;;;9.50;;
37280;SDS011;23169;41.804;12.596;2023-05-08T14:22:09;19.77;;;9.15;;
37280;SDS011;23169;41.804;12.596;2023-05-08T14:24:37;20.90;;;9.27;;
37280;SDS011;23169;41.804;12.596;2023-05-08T14:27:06;21.33;;;9.55;;
37280;SDS011;23169;41.804;12.596;2023-05-08T14:29:35;16.92;;;8.88;;
37280;SDS011;23169;41.804;12.596;2023-05-08T14:32:03;19.83;;;9.02;;
37280;SDS011;23169;41.804;12.596;2023-05-08T14:34:33;19.15;;;8.68;;
37280;SDS011;23169;41.804;12.596;2023-05-08T14:37:02;18.90;;;8.93;;
37280;SDS011;23169;41.804;12.596;2023-05-08T14:39:31;20.95;;;9.60;;
37280;SDS011;23169;41.804;12.596;2023-05-08T14:42:00;17.50;;;8.95;;
37280;SDS011;23169;41.804;12.596;2023-05-08T14:44:31;21.30;;;10.77;;
37280;SDS011;23169;41.804;12.596;2023-05-08T14:47:00;20.30;;;10.07;;
37280;SDS011;23169;41.804;12.596;2023-05-08T14:49:29;21.58;;;9.73;;
37280;SDS011;23169;41.804;12.596;2023-05-08T14:51:58;21.40;;;10.32;;
37280;SDS011;23169;41.804;12.596;2023-05-08T14:54:26;20.73;;;9.98;;
37280;SDS011;23169;41.804;12.596;2023-05-08T14:56:55;20.30;;;9.52;;
37280;SDS011;23169;41.804;12.596;2023-05-08T14:59:23;19.10;;;10.48;;
37280;SDS011;23169;41.804;12.596;2023-05-08T15:01:52;19.10;;;9.77;;
37280;SDS011;23169;41.804;12.596;2023-05-08T15:04:22;22.52;;;10.10;;
37280;SDS011;23169;41.804;12.596;2023-05-08T15:06:51;19.85;;;9.73;;
37280;SDS011;23169;41.804;12.596;2023-05-08T15:09:21;19.80;;;10.23;;
37280;SDS011;23169;41.804;12.596;2023-05-08T15:11:53;22.70;;;10.52;;
37280;SDS011;23169;41.804;12.596;2023-05-08T15:14:21;19.90;;;9.73;;
37280;SDS011;23169;41.804;12.596;2023-05-08T15:16:51;18.60;;;9.23;;
37280;SDS011;23169;41.804;12.596;2023-05-08T15:19:19;20.27;;;9.43;;
37280;SDS011;23169;41.804;12.596;2023-05-08T15:21:48;21.52;;;9.63;;
37280;SDS011;23169;41.804;12.596;2023-05-08T15:24:16;19.40;;;9.48;;
37280;SDS011;23169;41.804;12.596;2023-05-08T15:26:45;23.40;;;9.68;;
37280;SDS011;23169;41.804;12.596;2023-05-08T15:29:14;20.00;;;9.35;;
37280;SDS011;23169;41.804;12.596;2023-05-08T15:31:43;19.75;;;9.27;;
37280;SDS011;23169;41.804;12.596;2023-05-08T15:34:11;18.27;;;9.30;;
37280;SDS011;23169;41.804;12.596;2023-05-08T15:36:40;19.02;;;10.07;;
37280;SDS011;23169;41.804;12.596;2023-05-08T15:39:09;19.60;;;9.48;;
37280;SDS011;23169;41.804;12.596;2023-05-08T15:41:38;21.40;;;9.50;;
37280;SDS011;23169;41.804;12.596;2023-05-08T15:44:08;19.80;;;9.35;;
37280;SDS011;23169;41.804;12.596;2023-05-08T15:46:37;20.45;;;9.73;;
37280;SDS011;23169;41.804;12.596;2023-05-08T15:49:05;22.77;;;10.02;;